createdAt,value
2018-12-12T00:00:39.740Z,5.50
2018-12-12T00:03:08.086Z,6.45
2018-12-12T00:05:36.436Z,5.30
2018-12-12T00:08:04.858Z,5.87
2018-12-12T00:10:33.442Z,4.80
2018-12-12T00:13:01.863Z,6.08
2018-12-12T00:15:30.608Z,4.62
2018-12-12T00:17:59.365Z,4.15
2018-12-12T00:20:27.792Z,5.05
2018-12-12T00:22:56.121Z,4.87
2018-12-12T00:25:24.471Z,5.10
2018-12-12T00:27:52.829Z,4.58
2018-12-12T00:30:21.135Z,5.80
2018-12-12T00:32:49.484Z,5.05
2018-12-12T00:35:17.819Z,5.50
2018-12-12T00:37:46.143Z,6.00
2018-12-12T00:40:14.477Z,5.03
2018-12-12T00:42:42.896Z,4.90
2018-12-12T00:45:11.218Z,5.85
2018-12-12T00:47:39.573Z,5.60
2018-12-12T00:50:08.086Z,5.90
2018-12-12T00:52:36.420Z,5.47
2018-12-12T00:55:04.859Z,5.40
2018-12-12T00:57:33.294Z,5.50
2018-12-12T01:00:01.650Z,4.70
2018-12-12T01:02:29.971Z,5.90
2018-12-12T01:04:58.338Z,4.37
2018-12-12T01:07:26.770Z,5.22
2018-12-12T01:09:55.102Z,5.20
2018-12-12T01:12:23.532Z,5.53
2018-12-12T01:14:51.877Z,5.25
2018-12-12T01:17:20.209Z,4.95
2018-12-12T01:19:48.637Z,5.80
2018-12-12T01:22:16.990Z,7.22
2018-12-12T01:24:45.556Z,5.30
2018-12-12T01:27:14.005Z,5.50
2018-12-12T01:29:42.311Z,6.25
2018-12-12T01:32:10.683Z,5.10
2018-12-12T01:34:39.058Z,6.17
2018-12-12T01:37:07.521Z,7.75
2018-12-12T01:42:15.981Z,8.30
2018-12-12T01:44:44.350Z,8.05
2018-12-12T01:47:12.730Z,8.15
2018-12-12T01:49:41.060Z,6.80
2018-12-12T01:52:09.486Z,8.18
2018-12-12T01:54:37.808Z,8.85
2018-12-12T01:57:06.263Z,9.83
2018-12-12T01:59:34.597Z,9.25
2018-12-12T02:02:02.919Z,12.25
2018-12-12T02:04:31.255Z,12.88
2018-12-12T02:06:59.627Z,17.52
2018-12-12T02:09:27.965Z,13.85
2018-12-12T02:11:56.330Z,12.80
2018-12-12T02:14:24.659Z,13.48
2018-12-12T02:16:52.982Z,10.23
2018-12-12T02:19:21.323Z,9.95
2018-12-12T02:21:49.656Z,9.63
2018-12-12T02:24:18.003Z,10.63
2018-12-12T02:26:46.388Z,11.35
2018-12-12T02:29:14.731Z,9.28
2018-12-12T02:31:43.042Z,9.60
2018-12-12T02:34:11.407Z,9.23
2018-12-12T02:36:39.735Z,7.62
2018-12-12T02:39:08.465Z,9.40
2018-12-12T02:41:36.778Z,8.03
2018-12-12T02:44:05.088Z,7.30
2018-12-12T02:46:33.461Z,8.23
2018-12-12T02:49:01.763Z,8.53
2018-12-12T02:51:30.074Z,7.35
2018-12-12T02:53:58.514Z,7.62
2018-12-12T02:56:26.853Z,7.97
2018-12-12T02:58:55.268Z,9.25
2018-12-12T03:01:23.599Z,7.92
2018-12-12T03:03:52.018Z,8.00
2018-12-12T03:06:20.533Z,7.08
2018-12-12T03:08:48.860Z,6.85
2018-12-12T03:11:19.224Z,7.37
2018-12-12T03:13:47.531Z,7.37
2018-12-12T03:16:15.855Z,8.00
2018-12-12T03:18:44.193Z,7.33
2018-12-12T03:21:12.614Z,6.83
2018-12-12T03:23:41.015Z,7.20
2018-12-12T03:26:09.460Z,5.95
2018-12-12T03:28:37.791Z,7.55
2018-12-12T03:31:06.128Z,7.80
2018-12-12T03:33:34.478Z,8.55
2018-12-12T03:36:02.862Z,8.53
2018-12-12T03:38:31.201Z,9.30
2018-12-12T03:40:59.800Z,7.70
2018-12-12T03:43:28.143Z,8.23
2018-12-12T03:45:56.505Z,7.90
2018-12-12T03:48:24.969Z,6.60
2018-12-12T03:50:53.334Z,8.98
2018-12-12T03:53:21.679Z,8.13
2018-12-12T03:55:50.030Z,7.37
2018-12-12T03:58:18.446Z,7.62
2018-12-12T04:00:46.794Z,8.50
2018-12-12T04:03:15.144Z,8.35
2018-12-12T04:05:43.556Z,8.23
2018-12-12T04:08:11.888Z,8.75
2018-12-12T04:13:20.094Z,9.90
2018-12-12T04:18:21.394Z,9.10
2018-12-12T04:20:49.719Z,8.25
2018-12-12T04:23:18.070Z,10.23
2018-12-12T04:25:46.378Z,10.18
2018-12-12T04:28:14.723Z,8.55
2018-12-12T04:30:43.049Z,10.18
2018-12-12T04:33:11.535Z,8.90
2018-12-12T04:35:39.897Z,8.90
2018-12-12T04:38:08.267Z,9.55
2018-12-12T04:40:36.580Z,8.45
2018-12-12T04:43:04.911Z,8.60
2018-12-12T04:45:33.381Z,8.00
2018-12-12T04:48:01.721Z,9.20
2018-12-12T04:50:30.083Z,9.23
2018-12-12T04:52:58.441Z,8.18
2018-12-12T04:55:26.783Z,10.18
2018-12-12T04:57:55.206Z,9.18
2018-12-12T05:00:23.547Z,8.45
2018-12-12T05:02:52.489Z,8.40
2018-12-12T05:05:20.829Z,8.40
2018-12-12T05:07:49.136Z,8.95
2018-12-12T05:10:17.463Z,12.00
2018-12-12T05:12:45.819Z,12.60
2018-12-12T05:15:14.212Z,8.53
2018-12-12T05:17:42.509Z,7.92
2018-12-12T05:20:10.853Z,9.23
2018-12-12T05:22:39.187Z,9.20
2018-12-12T05:25:11.108Z,8.33
2018-12-12T05:27:39.450Z,8.88
2018-12-12T05:30:07.909Z,9.10
2018-12-12T05:32:36.393Z,9.08
2018-12-12T05:35:05.032Z,7.22
2018-12-12T05:37:33.422Z,8.03
2018-12-12T05:40:02.021Z,6.90
2018-12-12T05:42:30.438Z,7.72
2018-12-12T05:44:58.787Z,6.20
2018-12-12T05:47:27.115Z,8.03
2018-12-12T05:49:55.434Z,7.78
2018-12-12T05:52:23.775Z,8.83
2018-12-12T05:54:52.121Z,7.50
2018-12-12T05:57:20.463Z,8.03
2018-12-12T05:59:48.811Z,7.92
2018-12-12T06:02:17.147Z,8.45
2018-12-12T06:04:45.484Z,9.03
2018-12-12T06:07:13.913Z,7.90
2018-12-12T06:09:42.238Z,9.95
2018-12-12T06:12:10.568Z,9.05
2018-12-12T06:14:38.967Z,9.33
2018-12-12T06:17:07.466Z,10.63
2018-12-12T06:19:35.786Z,11.10
2018-12-12T06:22:04.210Z,9.10
2018-12-12T06:24:32.653Z,9.85
2018-12-12T06:27:00.976Z,7.72
2018-12-12T06:29:29.300Z,7.55
2018-12-12T06:31:57.633Z,7.65
2018-12-12T06:34:25.973Z,7.03
2018-12-12T06:36:54.304Z,8.98
2018-12-12T06:39:22.671Z,8.03
2018-12-12T06:41:50.999Z,8.20
2018-12-12T06:44:19.351Z,9.30
2018-12-12T06:46:47.688Z,8.38
2018-12-12T06:49:16.053Z,7.85
2018-12-12T06:51:44.371Z,7.72
2018-12-12T06:54:12.731Z,7.67
2018-12-12T06:56:41.083Z,6.75
2018-12-12T06:59:09.411Z,7.28
2018-12-12T07:01:38.069Z,6.80
2018-12-12T07:04:06.417Z,7.05
2018-12-12T07:06:34.716Z,6.92
2018-12-12T07:09:04.951Z,8.80
2018-12-12T07:11:33.304Z,7.55
2018-12-12T07:14:01.634Z,7.97
2018-12-12T07:16:29.966Z,6.12
2018-12-12T07:18:58.304Z,7.42
2018-12-12T07:21:26.622Z,8.83
2018-12-12T07:23:54.957Z,6.25
2018-12-12T07:26:23.280Z,5.50
2018-12-12T07:28:51.687Z,5.42
2018-12-12T07:31:20.095Z,5.20
2018-12-12T07:33:48.416Z,5.90
2018-12-12T07:36:16.777Z,5.95
2018-12-12T07:38:45.077Z,6.15
2018-12-12T07:41:13.447Z,6.45
2018-12-12T07:43:41.773Z,5.92
2018-12-12T07:46:10.124Z,5.45
2018-12-12T07:48:38.442Z,6.33
2018-12-12T07:51:06.853Z,5.95
2018-12-12T07:53:35.214Z,6.37
2018-12-12T07:56:03.649Z,5.53
2018-12-12T07:58:32.003Z,5.72
2018-12-12T08:01:00.335Z,8.55
2018-12-12T08:03:28.694Z,11.35
2018-12-12T08:05:57.060Z,14.93
2018-12-12T08:08:25.452Z,12.45
2018-12-12T08:10:53.813Z,16.25
2018-12-12T08:13:22.132Z,12.37
2018-12-12T08:15:50.507Z,12.33
2018-12-12T08:18:18.998Z,8.63
2018-12-12T08:20:47.334Z,9.23
2018-12-12T08:23:16.013Z,8.63
2018-12-12T08:25:44.685Z,9.58
2018-12-12T08:28:13.012Z,8.38
2018-12-12T08:30:41.349Z,8.75
2018-12-12T08:33:11.253Z,7.83
2018-12-12T08:35:39.932Z,10.13
2018-12-12T08:38:08.341Z,8.45
2018-12-12T08:40:36.727Z,12.40
2018-12-12T08:43:05.081Z,13.28
2018-12-12T08:45:33.526Z,14.00
2018-12-12T08:48:01.863Z,12.45
2018-12-12T08:50:30.179Z,11.97
2018-12-12T08:52:58.532Z,11.20
2018-12-12T08:55:26.933Z,6.50
2018-12-12T08:57:55.251Z,6.75
2018-12-12T09:00:23.580Z,6.45
2018-12-12T09:02:51.958Z,7.70
2018-12-12T09:05:20.379Z,6.28
2018-12-12T09:07:48.721Z,7.80
2018-12-12T09:10:17.070Z,7.40
2018-12-12T09:12:45.454Z,7.47
2018-12-12T09:15:13.800Z,6.65
2018-12-12T09:17:42.136Z,7.47
2018-12-12T09:20:10.502Z,7.05
2018-12-12T09:22:40.860Z,6.70
2018-12-12T09:25:11.457Z,9.55
2018-12-12T09:27:40.949Z,8.03
2018-12-12T09:30:09.763Z,7.62
2018-12-12T09:35:18.227Z,9.30
2018-12-12T09:37:46.605Z,8.70
2018-12-12T09:40:15.005Z,7.70
2018-12-12T09:42:43.368Z,9.08
2018-12-12T09:45:11.742Z,9.45
2018-12-12T09:47:40.039Z,7.30
2018-12-12T09:50:08.362Z,8.35
2018-12-12T09:52:36.705Z,8.25
2018-12-12T09:55:05.836Z,7.47
2018-12-12T09:57:34.163Z,8.88
2018-12-12T10:00:02.579Z,8.08
2018-12-12T10:02:30.943Z,8.53
2018-12-12T10:05:00.237Z,8.55
2018-12-12T10:07:28.632Z,9.13
2018-12-12T10:09:56.991Z,8.05
2018-12-12T10:12:25.369Z,9.25
2018-12-12T10:14:53.803Z,7.37
2018-12-12T10:17:22.172Z,8.33
2018-12-12T10:19:50.483Z,6.83
2018-12-12T10:22:18.816Z,6.85
2018-12-12T10:24:47.198Z,7.05
2018-12-12T10:27:15.613Z,7.65
2018-12-12T10:29:43.957Z,6.92
2018-12-12T10:32:12.328Z,6.42
2018-12-12T10:34:40.655Z,7.50
2018-12-12T10:37:08.997Z,7.72
2018-12-12T10:39:37.319Z,7.90
2018-12-12T10:42:05.766Z,8.23
2018-12-12T10:44:34.103Z,8.13
2018-12-12T10:47:02.510Z,7.83
2018-12-12T10:49:30.855Z,7.30
2018-12-12T10:51:59.198Z,7.87
2018-12-12T10:54:27.607Z,7.90
2018-12-12T10:56:55.963Z,7.30
2018-12-12T10:59:24.298Z,7.50
2018-12-12T11:01:54.679Z,7.90
2018-12-12T11:04:23.020Z,7.47
2018-12-12T11:06:51.429Z,7.85
2018-12-12T11:09:19.774Z,6.62
2018-12-12T11:11:48.122Z,6.03
2018-12-12T11:14:16.468Z,6.42
2018-12-12T11:16:44.801Z,5.35
2018-12-12T11:19:13.150Z,5.30
2018-12-12T11:21:41.568Z,4.03
2018-12-12T11:24:09.895Z,3.33
2018-12-12T11:26:38.243Z,3.10
2018-12-12T11:29:06.603Z,2.33
2018-12-12T11:31:34.987Z,2.50
2018-12-12T11:34:03.368Z,2.65
2018-12-12T11:36:31.802Z,2.22
2018-12-12T11:39:00.128Z,2.20
2018-12-12T11:41:28.450Z,2.50
2018-12-12T11:43:56.797Z,2.20
2018-12-12T11:46:25.371Z,2.52
2018-12-12T11:48:53.757Z,2.70
2018-12-12T11:51:22.063Z,2.55
2018-12-12T11:53:50.393Z,3.30
2018-12-12T11:56:18.808Z,2.60
2018-12-12T11:58:47.167Z,2.27
2018-12-12T12:01:15.500Z,2.25
2018-12-12T12:03:43.839Z,2.20
2018-12-12T12:06:12.158Z,2.20
2018-12-12T12:08:40.504Z,1.70
2018-12-12T12:11:08.851Z,1.30
2018-12-12T12:13:37.272Z,1.82
2018-12-12T12:16:05.652Z,1.95
2018-12-12T12:18:33.986Z,1.70
2018-12-12T12:21:02.326Z,1.90
2018-12-12T12:23:30.675Z,1.70
2018-12-12T12:25:59.020Z,2.20
2018-12-12T12:28:27.372Z,1.97
2018-12-12T12:30:55.727Z,2.00
2018-12-12T12:33:24.064Z,1.97
2018-12-12T12:35:52.390Z,2.58
2018-12-12T12:38:20.695Z,2.80
2018-12-12T12:40:49.149Z,2.33
2018-12-12T12:43:17.501Z,2.10
2018-12-12T12:45:46.427Z,2.60
2018-12-12T12:48:14.863Z,2.50
2018-12-12T12:50:44.180Z,2.65
2018-12-12T12:53:12.653Z,2.15
2018-12-12T12:55:41.215Z,2.55
2018-12-12T12:58:09.551Z,2.60
2018-12-12T13:00:37.990Z,2.80
2018-12-12T13:03:06.439Z,2.47
2018-12-12T13:05:34.839Z,2.72
2018-12-12T13:08:03.291Z,2.50
2018-12-12T13:10:32.010Z,2.00
2018-12-12T13:13:00.422Z,2.60
2018-12-12T13:15:29.023Z,2.65
2018-12-12T13:17:57.340Z,2.45
2018-12-12T13:20:26.123Z,2.70
2018-12-12T13:22:54.452Z,2.62
2018-12-12T13:25:22.860Z,2.92
2018-12-12T13:27:51.215Z,2.75
2018-12-12T13:30:19.637Z,2.00
2018-12-12T13:32:47.965Z,2.45
2018-12-12T13:35:16.314Z,2.42
2018-12-12T13:37:44.623Z,2.80
2018-12-12T13:40:13.077Z,2.17
2018-12-12T13:42:41.399Z,2.87
2018-12-12T13:45:09.831Z,2.90
2018-12-12T13:47:38.248Z,2.10
2018-12-12T13:50:06.655Z,2.02
2018-12-12T13:52:35.003Z,2.37
2018-12-12T13:55:03.432Z,2.67
2018-12-12T13:57:31.848Z,2.15
2018-12-12T14:00:00.208Z,2.30
2018-12-12T14:02:28.533Z,2.65
2018-12-12T14:04:56.870Z,2.35
2018-12-12T14:07:25.259Z,2.70
2018-12-12T14:09:53.569Z,1.92
2018-12-12T14:12:21.897Z,2.47
2018-12-12T14:14:50.197Z,2.98
2018-12-12T14:17:18.625Z,2.72
2018-12-12T14:19:46.990Z,2.62
2018-12-12T14:22:15.308Z,2.33
2018-12-12T14:24:43.641Z,2.42
2018-12-12T14:27:11.980Z,2.12
2018-12-12T14:29:40.408Z,2.30
2018-12-12T14:32:08.750Z,2.35
2018-12-12T14:34:37.089Z,2.02
2018-12-12T14:37:05.404Z,2.33
2018-12-12T14:39:33.716Z,2.22
2018-12-12T14:42:02.078Z,3.00
2018-12-12T14:44:30.428Z,2.70
2018-12-12T14:46:58.853Z,2.25
2018-12-12T14:49:27.188Z,3.00
2018-12-12T14:51:55.553Z,2.60
2018-12-12T14:54:23.862Z,2.72
2018-12-12T14:56:52.199Z,2.75
2018-12-12T14:59:20.521Z,3.92
2018-12-12T15:01:48.837Z,4.15
2018-12-12T15:04:17.180Z,3.12
2018-12-12T15:06:45.511Z,3.15
2018-12-12T15:09:13.819Z,3.30
2018-12-12T15:11:42.191Z,3.25
2018-12-12T15:14:10.539Z,2.70
2018-12-12T15:16:38.947Z,3.30
2018-12-12T15:19:07.271Z,2.42
2018-12-12T15:21:35.681Z,3.08
2018-12-12T15:24:04.001Z,3.95
2018-12-12T15:26:32.377Z,2.87
2018-12-12T15:29:00.689Z,4.20
2018-12-12T15:31:29.025Z,3.35
2018-12-12T15:33:57.404Z,3.40
2018-12-12T15:36:25.760Z,3.90
2018-12-12T15:38:54.092Z,3.50
2018-12-12T15:41:22.421Z,3.35
2018-12-12T15:43:50.834Z,3.62
2018-12-12T15:46:19.165Z,2.98
2018-12-12T15:48:47.539Z,3.92
2018-12-12T15:51:15.964Z,3.58
2018-12-12T15:53:44.301Z,4.05
2018-12-12T15:56:12.652Z,3.60
2018-12-12T15:58:40.987Z,4.15
2018-12-12T16:01:09.747Z,3.30
2018-12-12T16:03:38.155Z,4.00
2018-12-12T16:06:06.610Z,4.10
2018-12-12T16:08:34.980Z,3.10
2018-12-12T16:11:08.237Z,3.50
2018-12-12T16:13:33.658Z,3.98
2018-12-12T16:16:02.088Z,2.90
2018-12-12T16:18:30.419Z,2.85
2018-12-12T16:21:00.244Z,3.55
2018-12-12T16:23:28.776Z,3.67
2018-12-12T16:25:57.130Z,3.90
2018-12-12T16:28:25.464Z,4.83
2018-12-12T16:30:53.774Z,4.67
2018-12-12T16:33:22.157Z,5.25
2018-12-12T16:35:50.547Z,3.83
2018-12-12T16:38:18.893Z,2.98
2018-12-12T16:40:47.208Z,3.00
2018-12-12T16:43:15.532Z,5.15
2018-12-12T16:45:43.846Z,3.77
2018-12-12T16:48:12.186Z,5.62
2018-12-12T16:50:40.518Z,6.03
2018-12-12T16:53:08.835Z,4.03
2018-12-12T16:55:37.176Z,4.92
2018-12-12T16:58:05.533Z,4.78
2018-12-12T17:00:33.897Z,3.85
2018-12-12T17:03:02.239Z,4.25
2018-12-12T17:05:30.610Z,4.33
2018-12-12T17:07:58.977Z,5.50
2018-12-12T17:10:27.311Z,5.42
2018-12-12T17:12:55.750Z,5.87
2018-12-12T17:15:24.120Z,7.70
2018-12-12T17:17:52.534Z,6.40
2018-12-12T17:20:20.889Z,6.15
2018-12-12T17:22:49.212Z,4.70
2018-12-12T17:25:17.614Z,4.60
2018-12-12T17:27:45.915Z,4.05
2018-12-12T17:30:14.312Z,4.67
2018-12-12T17:32:42.624Z,5.05
2018-12-12T17:35:10.988Z,4.15
2018-12-12T17:37:39.342Z,5.92
2018-12-12T17:40:07.877Z,4.67
2018-12-12T17:42:36.388Z,5.25
2018-12-12T17:45:05.330Z,7.58
2018-12-12T17:47:33.704Z,6.62
2018-12-12T17:50:02.056Z,5.08
2018-12-12T17:52:30.482Z,5.47
2018-12-12T17:54:59.289Z,4.42
2018-12-12T17:57:27.645Z,5.78
2018-12-12T17:59:56.357Z,5.58
2018-12-12T18:02:24.696Z,7.08
2018-12-12T18:04:53.077Z,4.78
2018-12-12T18:07:21.497Z,6.17
2018-12-12T18:09:49.895Z,4.78
2018-12-12T18:12:18.265Z,4.65
2018-12-12T18:14:46.684Z,4.35
2018-12-12T18:17:16.150Z,4.40
2018-12-12T18:19:44.482Z,5.10
2018-12-12T18:22:12.825Z,7.25
2018-12-12T18:24:41.569Z,7.83
2018-12-12T18:27:09.934Z,8.70
2018-12-12T18:29:38.430Z,8.93
2018-12-12T18:32:06.812Z,9.58
2018-12-12T18:34:35.267Z,11.48
2018-12-12T18:37:03.755Z,13.25
2018-12-12T18:39:32.258Z,11.60
2018-12-12T18:42:00.844Z,10.58
2018-12-12T18:44:29.236Z,9.35
2018-12-12T18:46:57.836Z,9.43
2018-12-12T18:49:26.254Z,8.15
2018-12-12T18:54:33.220Z,12.40
2018-12-12T18:57:01.591Z,9.50
2018-12-12T18:59:30.022Z,7.55
2018-12-12T19:01:58.373Z,8.15
2018-12-12T19:04:26.709Z,9.63
2018-12-12T19:06:55.051Z,8.08
2018-12-12T19:09:23.481Z,9.78
2018-12-12T19:11:51.899Z,7.83
2018-12-12T19:14:20.336Z,7.30
2018-12-12T19:16:48.695Z,7.42
2018-12-12T19:19:17.215Z,7.47
2018-12-12T19:21:45.713Z,11.10
2018-12-12T19:24:14.151Z,7.95
2018-12-12T19:26:42.508Z,6.25
2018-12-12T19:29:10.893Z,5.80
2018-12-12T19:31:39.416Z,7.70
2018-12-12T19:34:07.803Z,6.47
2018-12-12T19:36:36.191Z,8.50
2018-12-12T19:39:07.293Z,7.03
2018-12-12T19:41:35.771Z,6.17
2018-12-12T19:44:04.356Z,7.20
2018-12-12T19:46:32.827Z,7.75
2018-12-12T19:49:01.267Z,5.25
2018-12-12T19:51:29.598Z,6.55
2018-12-12T19:53:57.969Z,4.90
2018-12-12T19:56:26.336Z,6.75
2018-12-12T19:58:54.687Z,6.00
2018-12-12T20:01:23.064Z,6.50
2018-12-12T20:03:51.899Z,6.85
2018-12-12T20:06:20.295Z,7.17
2018-12-12T20:08:48.648Z,7.15
2018-12-12T20:11:16.975Z,7.55
2018-12-12T20:13:45.335Z,7.72
2018-12-12T20:16:13.738Z,8.23
2018-12-12T20:18:42.120Z,7.85
2018-12-12T20:21:10.567Z,7.30
2018-12-12T20:23:38.950Z,5.60
2018-12-12T20:26:07.407Z,6.55
2018-12-12T20:28:35.764Z,7.80
2018-12-12T20:31:04.162Z,6.00
2018-12-12T20:33:32.527Z,6.90
2018-12-12T20:36:00.881Z,6.30
2018-12-12T20:38:29.223Z,5.72
2018-12-12T20:40:57.647Z,7.08
2018-12-12T20:43:25.997Z,4.62
2018-12-12T20:45:54.327Z,6.30
2018-12-12T20:48:22.763Z,4.50
2018-12-12T20:50:51.184Z,5.33
2018-12-12T20:53:19.591Z,6.25
2018-12-12T20:55:47.972Z,4.50
2018-12-12T20:58:16.388Z,5.10
2018-12-12T21:00:44.848Z,4.62
2018-12-12T21:03:13.199Z,5.53
2018-12-12T21:05:41.544Z,4.37
2018-12-12T21:08:09.879Z,4.90
2018-12-12T21:10:38.221Z,4.85
2018-12-12T21:13:06.543Z,4.22
2018-12-12T21:15:34.887Z,4.55
2018-12-12T21:18:03.222Z,3.77
2018-12-12T21:20:31.794Z,5.20
2018-12-12T21:23:00.161Z,3.92
2018-12-12T21:25:30.530Z,4.05
2018-12-12T21:27:58.991Z,4.70
2018-12-12T21:30:28.285Z,4.85
2018-12-12T21:32:56.740Z,4.83
2018-12-12T21:35:25.123Z,5.03
2018-12-12T21:37:53.469Z,3.87
2018-12-12T21:40:21.940Z,4.37
2018-12-12T21:42:50.269Z,3.90
2018-12-12T21:45:18.660Z,3.72
2018-12-12T21:47:47.084Z,4.30
2018-12-12T21:50:15.436Z,4.75
2018-12-12T21:52:43.799Z,3.25
2018-12-12T21:55:12.223Z,4.90
2018-12-12T21:57:40.685Z,4.30
2018-12-12T22:00:09.252Z,4.20
2018-12-12T22:02:37.652Z,4.70
2018-12-12T22:05:06.275Z,3.72
2018-12-12T22:07:34.788Z,5.20
2018-12-12T22:10:03.523Z,4.25
2018-12-12T22:12:31.847Z,4.42
2018-12-12T22:15:00.224Z,4.65
2018-12-12T22:17:28.580Z,5.08
2018-12-12T22:19:56.960Z,3.95
2018-12-12T22:22:25.285Z,4.40
2018-12-12T22:24:53.624Z,4.28
2018-12-12T22:27:22.024Z,5.03
2018-12-12T22:29:50.390Z,4.60
2018-12-12T22:32:18.761Z,4.65
2018-12-12T22:34:47.084Z,4.42
2018-12-12T22:37:15.447Z,4.80
2018-12-12T22:39:43.900Z,4.33
2018-12-12T22:42:12.276Z,4.45
2018-12-12T22:44:40.633Z,4.12
2018-12-12T22:47:08.971Z,3.92
2018-12-12T22:49:37.295Z,4.00
2018-12-12T22:52:05.700Z,3.37
2018-12-12T22:54:34.040Z,5.17
2018-12-12T22:57:02.400Z,4.22
2018-12-12T22:59:30.774Z,4.22
2018-12-12T23:01:59.190Z,4.12
2018-12-12T23:04:27.540Z,3.85
2018-12-12T23:06:55.863Z,3.62
2018-12-12T23:09:24.263Z,3.90
2018-12-12T23:11:52.591Z,3.92
2018-12-12T23:14:21.054Z,3.90
2018-12-12T23:16:49.398Z,4.10
2018-12-12T23:19:17.821Z,4.42
2018-12-12T23:21:46.196Z,4.08
2018-12-12T23:24:14.569Z,4.33
2018-12-12T23:26:42.904Z,3.60
2018-12-12T23:29:11.223Z,3.67
2018-12-12T23:31:39.580Z,3.92
2018-12-12T23:34:07.924Z,3.55
2018-12-12T23:36:36.271Z,4.15
2018-12-12T23:39:06.597Z,3.02
2018-12-12T23:41:35.046Z,5.05
2018-12-12T23:44:03.475Z,4.00
2018-12-12T23:46:32.279Z,3.30
2018-12-12T23:49:00.622Z,3.42
2018-12-12T23:51:29.011Z,4.22
2018-12-12T23:53:57.346Z,4.03
2018-12-12T23:56:25.652Z,4.28
2018-12-12T23:58:53.991Z,4.00
